sensor_id;sensor_type;location;lat;lon;timestamp;P1;durP1;ratioP1;P2;durP2;ratioP2
45940;SDS011;31858;46.008;8.978;2023-12-14T00:01:32;30.55;;;23.00;;
45940;SDS011;31858;46.008;8.978;2023-12-14T00:11:38;32.17;;;22.73;;
45940;SDS011;31858;46.008;8.978;2023-12-14T00:21:40;29.33;;;21.40;;
45940;SDS011;31858;46.008;8.978;2023-12-14T00:31:43;23.77;;;17.27;;
45940;SDS011;31858;46.008;8.978;2023-12-14T00:41:44;25.30;;;19.13;;
45940;SDS011;31858;46.008;8.978;2023-12-14T00:51:47;24.73;;;19.25;;
45940;SDS011;31858;46.008;8.978;2023-12-14T01:01:49;19.08;;;14.63;;
45940;SDS011;31858;46.008;8.978;2023-12-14T01:11:52;15.43;;;12.27;;
45940;SDS011;31858;46.008;8.978;2023-12-14T01:21:53;17.02;;;12.15;;
45940;SDS011;31858;46.008;8.978;2023-12-14T01:31:57;19.52;;;11.32;;
45940;SDS011;31858;46.008;8.978;2023-12-14T01:41:59;11.18;;;6.38;;
45940;SDS011;31858;46.008;8.978;2023-12-14T01:52:02;8.38;;;6.18;;
45940;SDS011;31858;46.008;8.978;2023-12-14T02:02:04;7.30;;;5.90;;
45940;SDS011;31858;46.008;8.978;2023-12-14T02:12:07;6.78;;;5.28;;
45940;SDS011;31858;46.008;8.978;2023-12-14T02:22:08;4.78;;;4.00;;
45940;SDS011;31858;46.008;8.978;2023-12-14T02:32:11;4.03;;;3.17;;
45940;SDS011;31858;46.008;8.978;2023-12-14T02:42:13;2.53;;;2.17;;
45940;SDS011;31858;46.008;8.978;2023-12-14T02:52:16;3.13;;;2.83;;
45940;SDS011;31858;46.008;8.978;2023-12-14T03:02:17;6.90;;;5.60;;
45940;SDS011;31858;46.008;8.978;2023-12-14T03:12:20;4.60;;;3.05;;
45940;SDS011;31858;46.008;8.978;2023-12-14T03:22:22;5.63;;;3.00;;
45940;SDS011;31858;46.008;8.978;2023-12-14T03:32:25;3.00;;;2.50;;
45940;SDS011;31858;46.008;8.978;2023-12-14T03:42:26;3.50;;;2.63;;
45940;SDS011;31858;46.008;8.978;2023-12-14T03:52:29;2.40;;;2.20;;
45940;SDS011;31858;46.008;8.978;2023-12-14T04:02:31;3.00;;;2.60;;
45940;SDS011;31858;46.008;8.978;2023-12-14T04:12:34;2.13;;;1.95;;
45940;SDS011;31858;46.008;8.978;2023-12-14T04:22:36;3.17;;;2.78;;
45940;SDS011;31858;46.008;8.978;2023-12-14T04:32:39;1.98;;;1.80;;
45940;SDS011;31858;46.008;8.978;2023-12-14T04:42:41;1.40;;;1.30;;
45940;SDS011;31858;46.008;8.978;2023-12-14T04:52:43;1.30;;;1.20;;
45940;SDS011;31858;46.008;8.978;2023-12-14T05:02:46;2.03;;;1.75;;
45940;SDS011;31858;46.008;8.978;2023-12-14T05:12:50;6.85;;;1.60;;
45940;SDS011;31858;46.008;8.978;2023-12-14T05:22:52;0.80;;;0.80;;
45940;SDS011;31858;46.008;8.978;2023-12-14T05:32:55;1.35;;;0.90;;
45940;SDS011;31858;46.008;8.978;2023-12-14T05:42:56;3.20;;;1.95;;
45940;SDS011;31858;46.008;8.978;2023-12-14T05:53:00;7.75;;;4.75;;
45940;SDS011;31858;46.008;8.978;2023-12-14T06:03:01;2.90;;;1.85;;
45940;SDS011;31858;46.008;8.978;2023-12-14T06:13:04;2.35;;;1.00;;
45940;SDS011;31858;46.008;8.978;2023-12-14T06:23:06;1.15;;;0.73;;
45940;SDS011;31858;46.008;8.978;2023-12-14T06:33:09;1.38;;;1.15;;
45940;SDS011;31858;46.008;8.978;2023-12-14T06:43:10;0.70;;;0.70;;
45940;SDS011;31858;46.008;8.978;2023-12-14T06:53:13;2.78;;;2.13;;
45940;SDS011;31858;46.008;8.978;2023-12-14T07:03:15;2.92;;;0.30;;
45940;SDS011;31858;46.008;8.978;2023-12-14T07:13:18;0.40;;;0.40;;
45940;SDS011;31858;46.008;8.978;2023-12-14T07:23:21;0.52;;;0.45;;
45940;SDS011;31858;46.008;8.978;2023-12-14T07:33:23;2.75;;;0.63;;
45940;SDS011;31858;46.008;8.978;2023-12-14T07:43:25;1.02;;;0.50;;
45940;SDS011;31858;46.008;8.978;2023-12-14T07:53:28;0.40;;;0.40;;
45940;SDS011;31858;46.008;8.978;2023-12-14T08:03:29;1.45;;;0.32;;
45940;SDS011;31858;46.008;8.978;2023-12-14T08:13:32;0.98;;;0.88;;
45940;SDS011;31858;46.008;8.978;2023-12-14T08:23:34;0.40;;;0.38;;
45940;SDS011;31858;46.008;8.978;2023-12-14T08:33:37;0.70;;;0.20;;
45940;SDS011;31858;46.008;8.978;2023-12-14T08:43:39;0.93;;;0.20;;
45940;SDS011;31858;46.008;8.978;2023-12-14T08:53:42;0.28;;;0.20;;
45940;SDS011;31858;46.008;8.978;2023-12-14T09:03:43;2.00;;;0.60;;
45940;SDS011;31858;46.008;8.978;2023-12-14T09:13:46;0.20;;;0.20;;
45940;SDS011;31858;46.008;8.978;2023-12-14T09:23:48;0.73;;;0.40;;
45940;SDS011;31858;46.008;8.978;2023-12-14T09:33:51;3.92;;;1.02;;
45940;SDS011;31858;46.008;8.978;2023-12-14T09:43:52;0.70;;;0.68;;
45940;SDS011;31858;46.008;8.978;2023-12-14T09:53:55;8.63;;;1.55;;
45940;SDS011;31858;46.008;8.978;2023-12-14T10:04:07;3.00;;;1.00;;
45940;SDS011;31858;46.008;8.978;2023-12-14T10:14:20;0.85;;;0.85;;
45940;SDS011;31858;46.008;8.978;2023-12-14T10:24:24;3.33;;;1.05;;
45940;SDS011;31858;46.008;8.978;2023-12-14T10:34:27;1.40;;;0.98;;
45940;SDS011;31858;46.008;8.978;2023-12-14T10:44:29;8.55;;;1.13;;
45940;SDS011;31858;46.008;8.978;2023-12-14T10:54:34;0.70;;;0.70;;
45940;SDS011;31858;46.008;8.978;2023-12-14T11:14:56;0.40;;;0.40;;
45940;SDS011;31858;46.008;8.978;2023-12-14T11:24:58;0.30;;;0.30;;
45940;SDS011;31858;46.008;8.978;2023-12-14T11:35:01;2.05;;;0.68;;
45940;SDS011;31858;46.008;8.978;2023-12-14T11:45:02;2.05;;;0.35;;
45940;SDS011;31858;46.008;8.978;2023-12-14T11:55:06;0.40;;;0.20;;
45940;SDS011;31858;46.008;8.978;2023-12-14T12:05:10;0.10;;;0.10;;
45940;SDS011;31858;46.008;8.978;2023-12-14T12:15:15;0.10;;;0.10;;
45940;SDS011;31858;46.008;8.978;2023-12-14T12:25:18;0.08;;;0.08;;
45940;SDS011;31858;46.008;8.978;2023-12-14T12:35:22;3.20;;;0.30;;
45940;SDS011;31858;46.008;8.978;2023-12-14T12:45:25;0.10;;;0.10;;
45940;SDS011;31858;46.008;8.978;2023-12-14T12:55:29;0.10;;;0.10;;
45940;SDS011;31858;46.008;8.978;2023-12-14T13:05:30;0.10;;;0.10;;
45940;SDS011;31858;46.008;8.978;2023-12-14T13:15:33;0.52;;;0.10;;
45940;SDS011;31858;46.008;8.978;2023-12-14T13:25:36;1.35;;;0.30;;
45940;SDS011;31858;46.008;8.978;2023-12-14T13:35:39;0.17;;;0.17;;
45940;SDS011;31858;46.008;8.978;2023-12-14T13:45:41;0.13;;;0.13;;
45940;SDS011;31858;46.008;8.978;2023-12-14T13:55:45;0.10;;;0.10;;
45940;SDS011;31858;46.008;8.978;2023-12-14T14:05:48;0.20;;;0.10;;
45940;SDS011;31858;46.008;8.978;2023-12-14T14:15:51;3.33;;;1.10;;
45940;SDS011;31858;46.008;8.978;2023-12-14T14:25:53;0.00;;;0.00;;
45940;SDS011;31858;46.008;8.978;2023-12-14T14:35:56;0.10;;;0.10;;
45940;SDS011;31858;46.008;8.978;2023-12-14T14:45:57;0.10;;;0.10;;
45940;SDS011;31858;46.008;8.978;2023-12-14T14:56:01;0.00;;;0.00;;
45940;SDS011;31858;46.008;8.978;2023-12-14T15:06:03;0.45;;;0.10;;
45940;SDS011;31858;46.008;8.978;2023-12-14T15:16:07;0.73;;;0.10;;
45940;SDS011;31858;46.008;8.978;2023-12-14T15:26:08;0.65;;;0.65;;
45940;SDS011;31858;46.008;8.978;2023-12-14T15:36:12;0.73;;;0.10;;
45940;SDS011;31858;46.008;8.978;2023-12-14T15:46:13;0.17;;;0.17;;
45940;SDS011;31858;46.008;8.978;2023-12-14T15:56:17;0.20;;;0.15;;
45940;SDS011;31858;46.008;8.978;2023-12-14T16:06:18;0.85;;;0.20;;
45940;SDS011;31858;46.008;8.978;2023-12-14T16:16:21;0.22;;;0.00;;
45940;SDS011;31858;46.008;8.978;2023-12-14T16:26:23;0.10;;;0.10;;
45940;SDS011;31858;46.008;8.978;2023-12-14T16:36:26;0.90;;;0.20;;
45940;SDS011;31858;46.008;8.978;2023-12-14T16:46:27;0.13;;;0.13;;
45940;SDS011;31858;46.008;8.978;2023-12-14T16:56:32;0.10;;;0.10;;
45940;SDS011;31858;46.008;8.978;2023-12-14T17:06:33;0.10;;;0.10;;
45940;SDS011;31858;46.008;8.978;2023-12-14T17:16:36;0.20;;;0.20;;
45940;SDS011;31858;46.008;8.978;2023-12-14T17:26:38;0.43;;;0.10;;
45940;SDS011;31858;46.008;8.978;2023-12-14T17:36:41;0.25;;;0.22;;
45940;SDS011;31858;46.008;8.978;2023-12-14T17:46:43;0.20;;;0.20;;
45940;SDS011;31858;46.008;8.978;2023-12-14T17:56:46;1.15;;;0.20;;
45940;SDS011;31858;46.008;8.978;2023-12-14T18:06:47;0.20;;;0.20;;
45940;SDS011;31858;46.008;8.978;2023-12-14T18:16:50;0.10;;;0.10;;
45940;SDS011;31858;46.008;8.978;2023-12-14T18:26:52;0.20;;;0.10;;
45940;SDS011;31858;46.008;8.978;2023-12-14T18:36:55;2.15;;;0.20;;
45940;SDS011;31858;46.008;8.978;2023-12-14T18:46:57;0.10;;;0.10;;
45940;SDS011;31858;46.008;8.978;2023-12-14T18:57:00;0.30;;;0.30;;
45940;SDS011;31858;46.008;8.978;2023-12-14T19:07:01;0.32;;;0.20;;
45940;SDS011;31858;46.008;8.978;2023-12-14T19:17:04;0.10;;;0.10;;
45940;SDS011;31858;46.008;8.978;2023-12-14T19:27:06;0.10;;;0.10;;
45940;SDS011;31858;46.008;8.978;2023-12-14T19:37:09;0.10;;;0.10;;
45940;SDS011;31858;46.008;8.978;2023-12-14T19:47:10;0.10;;;0.10;;
45940;SDS011;31858;46.008;8.978;2023-12-14T19:57:13;0.80;;;0.80;;
45940;SDS011;31858;46.008;8.978;2023-12-14T20:07:15;0.47;;;0.47;;
45940;SDS011;31858;46.008;8.978;2023-12-14T20:17:18;0.20;;;0.20;;
45940;SDS011;31858;46.008;8.978;2023-12-14T20:27:20;0.57;;;0.38;;
45940;SDS011;31858;46.008;8.978;2023-12-14T20:37:23;0.30;;;0.30;;
45940;SDS011;31858;46.008;8.978;2023-12-14T20:47:25;0.30;;;0.30;;
45940;SDS011;31858;46.008;8.978;2023-12-14T20:57:30;0.10;;;0.10;;
45940;SDS011;31858;46.008;8.978;2023-12-14T21:07:32;0.43;;;0.43;;
45940;SDS011;31858;46.008;8.978;2023-12-14T21:17:35;1.65;;;1.02;;
45940;SDS011;31858;46.008;8.978;2023-12-14T21:27:37;0.70;;;0.40;;
45940;SDS011;31858;46.008;8.978;2023-12-14T21:37:50;0.30;;;0.30;;
45940;SDS011;31858;46.008;8.978;2023-12-14T21:47:52;0.28;;;0.28;;
45940;SDS011;31858;46.008;8.978;2023-12-14T21:57:56;0.20;;;0.20;;
45940;SDS011;31858;46.008;8.978;2023-12-14T22:07:57;0.25;;;0.20;;
45940;SDS011;31858;46.008;8.978;2023-12-14T22:18:00;1.27;;;0.30;;
45940;SDS011;31858;46.008;8.978;2023-12-14T22:28:02;0.20;;;0.20;;
45940;SDS011;31858;46.008;8.978;2023-12-14T22:38:05;0.20;;;0.20;;
45940;SDS011;31858;46.008;8.978;2023-12-14T22:48:06;0.88;;;0.40;;
45940;SDS011;31858;46.008;8.978;2023-12-14T22:58:09;0.22;;;0.20;;
45940;SDS011;31858;46.008;8.978;2023-12-14T23:08:11;0.50;;;0.50;;
45940;SDS011;31858;46.008;8.978;2023-12-14T23:18:14;0.73;;;0.30;;
45940;SDS011;31858;46.008;8.978;2023-12-14T23:28:15;0.20;;;0.20;;
45940;SDS011;31858;46.008;8.978;2023-12-14T23:38:23;0.20;;;0.20;;
45940;SDS011;31858;46.008;8.978;2023-12-14T23:48:24;0.13;;;0.10;;
45940;SDS011;31858;46.008;8.978;2023-12-14T23:58:27;0.03;;;0.03;;
